KJMS

Jamestown Regional Airport

Jamestown, North Dakota, USA
METAR KJMS 170756Z AUTO 25003KT 10SM CLR M03/M04 A3003 RMK AO2 SLP187 I1000 T10331039
Observed Flight Rules
Dec-17 @ 07:56 UTC (16 minutes ago) Visual Flight Rules
Wind Visibility Clouds
250° at 3 knots 10 miles
  • Clear skies
Temperatures Readings
Current -3°C / 27°F
Dewpoint -4°C / 25°F
Humidity 93%
Altimeter 30.03" Hg
Pressure 1018.7 hPa
Elevation 455
METAR KJMS 170756Z AUTO 25003KT 10SM CLR M03/M04 A3003 RMK AO2 SLP187 I1000 T10331039
Observed Flight Rules
Dec-17 @ 07:56 UTC
(16 minutes ago)
VFR
Wind Visibility
250° at 3 knots 10 miles
Clouds
  • Clear skies
Temperature Dewpoint
-3°C / 27°F -4°C / 25°F
Humidity Altimeter Pressure
93% 30.03" Hg 1018.7 hPa